sensor_id;sensor_type;location;lat;lon;timestamp;temperature;humidity
68924;DHT22;55961;52.156;20.942;2022-07-11T00:02:05;12.40;75.90
68924;DHT22;55961;52.156;20.942;2022-07-11T00:04:31;12.40;76.00
68924;DHT22;55961;52.156;20.942;2022-07-11T00:06:58;12.40;76.00
68924;DHT22;55961;52.156;20.942;2022-07-11T00:09:24;12.30;76.10
68924;DHT22;55961;52.156;20.942;2022-07-11T00:11:51;12.30;76.20
68924;DHT22;55961;52.156;20.942;2022-07-11T00:14:17;12.30;76.20
68924;DHT22;55961;52.156;20.942;2022-07-11T00:16:43;12.30;76.10
68924;DHT22;55961;52.156;20.942;2022-07-11T00:19:09;12.30;76.20
68924;DHT22;55961;52.156;20.942;2022-07-11T00:21:36;12.30;76.20
68924;DHT22;55961;52.156;20.942;2022-07-11T00:24:03;12.20;76.20
68924;DHT22;55961;52.156;20.942;2022-07-11T00:26:29;12.20;76.30
68924;DHT22;55961;52.156;20.942;2022-07-11T00:28:55;12.20;76.30
68924;DHT22;55961;52.156;20.942;2022-07-11T00:31:21;12.20;76.40
68924;DHT22;55961;52.156;20.942;2022-07-11T00:33:47;12.10;76.40
68924;DHT22;55961;52.156;20.942;2022-07-11T00:36:13;12.10;76.50
68924;DHT22;55961;52.156;20.942;2022-07-11T00:38:39;12.10;76.40
68924;DHT22;55961;52.156;20.942;2022-07-11T00:41:05;12.10;76.30
68924;DHT22;55961;52.156;20.942;2022-07-11T00:43:35;12.10;76.20
68924;DHT22;55961;52.156;20.942;2022-07-11T00:46:02;12.10;76.20
68924;DHT22;55961;52.156;20.942;2022-07-11T00:48:29;12.10;76.30
68924;DHT22;55961;52.156;20.942;2022-07-11T00:50:56;12.10;76.30
68924;DHT22;55961;52.156;20.942;2022-07-11T00:53:22;12.00;76.30
68924;DHT22;55961;52.156;20.942;2022-07-11T00:55:50;12.00;76.30
68924;DHT22;55961;52.156;20.942;2022-07-11T00:58:18;12.00;76.30
68924;DHT22;55961;52.156;20.942;2022-07-11T01:00:44;12.00;76.50
68924;DHT22;55961;52.156;20.942;2022-07-11T01:03:10;12.00;76.40
68924;DHT22;55961;52.156;20.942;2022-07-11T01:05:37;12.00;76.40
68924;DHT22;55961;52.156;20.942;2022-07-11T01:08:03;11.90;76.60
68924;DHT22;55961;52.156;20.942;2022-07-11T01:10:29;11.90;76.50
68924;DHT22;55961;52.156;20.942;2022-07-11T01:12:55;11.90;76.50
68924;DHT22;55961;52.156;20.942;2022-07-11T01:15:21;11.90;76.70
68924;DHT22;55961;52.156;20.942;2022-07-11T01:17:46;11.80;76.70
68924;DHT22;55961;52.156;20.942;2022-07-11T01:20:12;11.80;76.80
68924;DHT22;55961;52.156;20.942;2022-07-11T01:22:51;11.80;76.90
68924;DHT22;55961;52.156;20.942;2022-07-11T01:25:18;11.80;76.80
68924;DHT22;55961;52.156;20.942;2022-07-11T01:30:24;11.80;77.10
68924;DHT22;55961;52.156;20.942;2022-07-11T01:32:53;11.70;77.00
68924;DHT22;55961;52.156;20.942;2022-07-11T01:35:20;11.70;77.10
68924;DHT22;55961;52.156;20.942;2022-07-11T01:37:46;11.70;77.20
68924;DHT22;55961;52.156;20.942;2022-07-11T01:40:12;11.70;77.10
68924;DHT22;55961;52.156;20.942;2022-07-11T01:42:39;11.70;77.10
68924;DHT22;55961;52.156;20.942;2022-07-11T01:45:05;11.70;77.00
68924;DHT22;55961;52.156;20.942;2022-07-11T01:47:31;11.60;77.00
68924;DHT22;55961;52.156;20.942;2022-07-11T01:49:56;11.60;77.20
68924;DHT22;55961;52.156;20.942;2022-07-11T01:52:23;11.60;77.20
68924;DHT22;55961;52.156;20.942;2022-07-11T01:54:49;11.60;77.50
68924;DHT22;55961;52.156;20.942;2022-07-11T01:57:15;11.60;77.40
68924;DHT22;55961;52.156;20.942;2022-07-11T01:59:41;11.60;77.40
68924;DHT22;55961;52.156;20.942;2022-07-11T02:02:08;11.60;77.50
68924;DHT22;55961;52.156;20.942;2022-07-11T02:04:33;11.60;77.60
68924;DHT22;55961;52.156;20.942;2022-07-11T02:06:59;11.60;77.70
68924;DHT22;55961;52.156;20.942;2022-07-11T02:09:25;11.60;77.80
68924;DHT22;55961;52.156;20.942;2022-07-11T02:11:51;11.50;77.90
68924;DHT22;55961;52.156;20.942;2022-07-11T02:14:17;11.50;77.90
68924;DHT22;55961;52.156;20.942;2022-07-11T02:16:43;11.50;77.90
68924;DHT22;55961;52.156;20.942;2022-07-11T02:19:09;11.50;77.90
68924;DHT22;55961;52.156;20.942;2022-07-11T02:21:36;11.50;77.90
68924;DHT22;55961;52.156;20.942;2022-07-11T02:24:03;11.50;77.90
68924;DHT22;55961;52.156;20.942;2022-07-11T02:26:29;11.50;78.00
68924;DHT22;55961;52.156;20.942;2022-07-11T02:28:55;11.50;78.00
68924;DHT22;55961;52.156;20.942;2022-07-11T02:31:21;11.50;78.10
68924;DHT22;55961;52.156;20.942;2022-07-11T02:33:47;11.50;78.20
68924;DHT22;55961;52.156;20.942;2022-07-11T02:36:13;11.50;78.40
68924;DHT22;55961;52.156;20.942;2022-07-11T02:38:39;11.40;78.40
68924;DHT22;55961;52.156;20.942;2022-07-11T02:41:05;11.40;78.40
68924;DHT22;55961;52.156;20.942;2022-07-11T02:43:31;11.40;78.60
68924;DHT22;55961;52.156;20.942;2022-07-11T02:45:57;11.40;78.60
68924;DHT22;55961;52.156;20.942;2022-07-11T02:48:23;11.40;78.70
68924;DHT22;55961;52.156;20.942;2022-07-11T02:50:49;11.40;78.60
68924;DHT22;55961;52.156;20.942;2022-07-11T02:53:15;11.40;78.80
68924;DHT22;55961;52.156;20.942;2022-07-11T02:55:40;11.40;78.80
68924;DHT22;55961;52.156;20.942;2022-07-11T02:58:06;11.40;79.10
68924;DHT22;55961;52.156;20.942;2022-07-11T03:00:33;11.40;79.10
68924;DHT22;55961;52.156;20.942;2022-07-11T03:02:59;11.40;79.10
68924;DHT22;55961;52.156;20.942;2022-07-11T03:05:25;11.40;79.10
68924;DHT22;55961;52.156;20.942;2022-07-11T03:07:51;11.40;79.30
68924;DHT22;55961;52.156;20.942;2022-07-11T03:10:17;11.40;79.40
68924;DHT22;55961;52.156;20.942;2022-07-11T03:12:43;11.40;79.50
68924;DHT22;55961;52.156;20.942;2022-07-11T03:15:11;11.40;79.70
68924;DHT22;55961;52.156;20.942;2022-07-11T03:17:38;11.50;79.60
68924;DHT22;55961;52.156;20.942;2022-07-11T03:20:04;11.50;79.80
68924;DHT22;55961;52.156;20.942;2022-07-11T03:22:31;11.50;80.10
68924;DHT22;55961;52.156;20.942;2022-07-11T03:24:57;11.50;80.10
68924;DHT22;55961;52.156;20.942;2022-07-11T03:27:23;11.60;80.20
68924;DHT22;55961;52.156;20.942;2022-07-11T03:29:50;11.60;80.30
68924;DHT22;55961;52.156;20.942;2022-07-11T03:32:16;11.60;80.40
68924;DHT22;55961;52.156;20.942;2022-07-11T03:34:46;11.70;80.40
68924;DHT22;55961;52.156;20.942;2022-07-11T03:37:31;11.70;80.60
68924;DHT22;55961;52.156;20.942;2022-07-11T03:39:57;11.80;80.60
68924;DHT22;55961;52.156;20.942;2022-07-11T03:42:24;11.80;80.70
68924;DHT22;55961;52.156;20.942;2022-07-11T03:44:49;11.90;80.80
68924;DHT22;55961;52.156;20.942;2022-07-11T03:47:17;11.90;81.00
68924;DHT22;55961;52.156;20.942;2022-07-11T03:49:43;12.00;81.10
68924;DHT22;55961;52.156;20.942;2022-07-11T03:52:09;12.00;81.10
68924;DHT22;55961;52.156;20.942;2022-07-11T03:54:35;12.10;80.80
68924;DHT22;55961;52.156;20.942;2022-07-11T03:57:01;12.10;81.00
68924;DHT22;55961;52.156;20.942;2022-07-11T03:59:28;12.20;81.10
68924;DHT22;55961;52.156;20.942;2022-07-11T04:01:54;12.20;81.20
68924;DHT22;55961;52.156;20.942;2022-07-11T04:04:19;12.30;81.00
68924;DHT22;55961;52.156;20.942;2022-07-11T04:06:45;12.30;81.00
68924;DHT22;55961;52.156;20.942;2022-07-11T04:09:11;12.40;81.00
68924;DHT22;55961;52.156;20.942;2022-07-11T04:11:37;12.40;80.90
68924;DHT22;55961;52.156;20.942;2022-07-11T04:14:03;12.50;81.00
68924;DHT22;55961;52.156;20.942;2022-07-11T04:16:29;12.50;81.10
68924;DHT22;55961;52.156;20.942;2022-07-11T04:18:55;12.60;81.10
68924;DHT22;55961;52.156;20.942;2022-07-11T04:21:20;12.70;80.90
68924;DHT22;55961;52.156;20.942;2022-07-11T04:23:46;12.70;80.80
68924;DHT22;55961;52.156;20.942;2022-07-11T04:26:13;12.80;80.70
68924;DHT22;55961;52.156;20.942;2022-07-11T04:28:39;12.90;80.80
68924;DHT22;55961;52.156;20.942;2022-07-11T04:31:04;12.90;81.10
68924;DHT22;55961;52.156;20.942;2022-07-11T04:33:30;13.00;80.90
68924;DHT22;55961;52.156;20.942;2022-07-11T04:35:56;13.00;80.60
68924;DHT22;55961;52.156;20.942;2022-07-11T04:38:22;13.10;80.40
68924;DHT22;55961;52.156;20.942;2022-07-11T04:40:49;13.10;79.80
68924;DHT22;55961;52.156;20.942;2022-07-11T04:43:16;13.20;79.40
68924;DHT22;55961;52.156;20.942;2022-07-11T04:45:42;13.20;79.70
68924;DHT22;55961;52.156;20.942;2022-07-11T04:48:08;13.20;80.00
68924;DHT22;55961;52.156;20.942;2022-07-11T04:50:33;13.20;79.80
68924;DHT22;55961;52.156;20.942;2022-07-11T04:52:59;13.20;80.10
68924;DHT22;55961;52.156;20.942;2022-07-11T04:55:25;13.30;80.00
68924;DHT22;55961;52.156;20.942;2022-07-11T04:57:51;13.30;80.10
68924;DHT22;55961;52.156;20.942;2022-07-11T05:00:19;13.30;79.90
68924;DHT22;55961;52.156;20.942;2022-07-11T05:02:45;13.30;79.10
68924;DHT22;55961;52.156;20.942;2022-07-11T05:05:11;13.30;79.10
68924;DHT22;55961;52.156;20.942;2022-07-11T05:07:37;13.20;79.20
68924;DHT22;55961;52.156;20.942;2022-07-11T05:10:04;13.20;79.60
68924;DHT22;55961;52.156;20.942;2022-07-11T05:12:30;13.20;79.50
68924;DHT22;55961;52.156;20.942;2022-07-11T05:14:56;13.20;79.30
68924;DHT22;55961;52.156;20.942;2022-07-11T05:17:27;13.30;79.20
68924;DHT22;55961;52.156;20.942;2022-07-11T05:19:53;13.30;79.00
68924;DHT22;55961;52.156;20.942;2022-07-11T05:22:19;13.30;78.90
68924;DHT22;55961;52.156;20.942;2022-07-11T05:24:45;13.30;78.90
68924;DHT22;55961;52.156;20.942;2022-07-11T05:27:11;13.30;79.10
68924;DHT22;55961;52.156;20.942;2022-07-11T05:29:37;13.30;79.00
68924;DHT22;55961;52.156;20.942;2022-07-11T05:32:03;13.30;78.80
68924;DHT22;55961;52.156;20.942;2022-07-11T05:34:28;13.30;79.00
68924;DHT22;55961;52.156;20.942;2022-07-11T05:36:54;13.30;79.10
68924;DHT22;55961;52.156;20.942;2022-07-11T05:39:20;13.30;79.00
68924;DHT22;55961;52.156;20.942;2022-07-11T05:41:46;13.30;78.90
68924;DHT22;55961;52.156;20.942;2022-07-11T05:44:12;13.30;79.00
68924;DHT22;55961;52.156;20.942;2022-07-11T05:46:38;13.30;78.80
68924;DHT22;55961;52.156;20.942;2022-07-11T05:49:08;13.40;78.90
68924;DHT22;55961;52.156;20.942;2022-07-11T05:51:34;13.40;79.10
68924;DHT22;55961;52.156;20.942;2022-07-11T05:54:02;13.40;78.90
68924;DHT22;55961;52.156;20.942;2022-07-11T05:56:28;13.40;78.90
68924;DHT22;55961;52.156;20.942;2022-07-11T05:58:54;13.40;78.60
68924;DHT22;55961;52.156;20.942;2022-07-11T06:01:21;13.40;78.60
68924;DHT22;55961;52.156;20.942;2022-07-11T06:03:47;13.40;78.90
68924;DHT22;55961;52.156;20.942;2022-07-11T06:06:13;13.50;79.10
68924;DHT22;55961;52.156;20.942;2022-07-11T06:08:39;13.50;79.10
68924;DHT22;55961;52.156;20.942;2022-07-11T06:11:15;13.50;79.30
68924;DHT22;55961;52.156;20.942;2022-07-11T06:13:43;13.60;79.20
68924;DHT22;55961;52.156;20.942;2022-07-11T06:16:13;13.60;79.00
68924;DHT22;55961;52.156;20.942;2022-07-11T06:18:39;13.70;79.10
68924;DHT22;55961;52.156;20.942;2022-07-11T06:21:05;13.70;78.60
68924;DHT22;55961;52.156;20.942;2022-07-11T06:23:32;13.70;78.90
68924;DHT22;55961;52.156;20.942;2022-07-11T06:26:00;13.80;78.40
68924;DHT22;55961;52.156;20.942;2022-07-11T06:28:26;13.80;78.30
68924;DHT22;55961;52.156;20.942;2022-07-11T06:30:52;13.80;78.20
68924;DHT22;55961;52.156;20.942;2022-07-11T06:33:19;13.90;78.00
68924;DHT22;55961;52.156;20.942;2022-07-11T06:35:46;13.90;77.80
68924;DHT22;55961;52.156;20.942;2022-07-11T06:38:13;13.90;77.30
68924;DHT22;55961;52.156;20.942;2022-07-11T06:40:39;13.90;77.40
68924;DHT22;55961;52.156;20.942;2022-07-11T06:43:06;14.00;77.30
68924;DHT22;55961;52.156;20.942;2022-07-11T06:45:32;13.90;77.30
68924;DHT22;55961;52.156;20.942;2022-07-11T06:47:59;13.90;77.30
68924;DHT22;55961;52.156;20.942;2022-07-11T06:50:25;14.00;77.20
68924;DHT22;55961;52.156;20.942;2022-07-11T06:52:50;13.90;77.10
68924;DHT22;55961;52.156;20.942;2022-07-11T06:55:17;13.90;77.10
68924;DHT22;55961;52.156;20.942;2022-07-11T06:57:42;13.90;76.80
68924;DHT22;55961;52.156;20.942;2022-07-11T07:00:09;13.90;77.00
68924;DHT22;55961;52.156;20.942;2022-07-11T07:02:35;13.80;77.30
68924;DHT22;55961;52.156;20.942;2022-07-11T07:05:01;13.80;77.40
68924;DHT22;55961;52.156;20.942;2022-07-11T07:07:27;13.80;77.50
68924;DHT22;55961;52.156;20.942;2022-07-11T07:09:54;13.80;78.00
68924;DHT22;55961;52.156;20.942;2022-07-11T07:12:21;13.80;78.20
68924;DHT22;55961;52.156;20.942;2022-07-11T07:14:47;13.90;78.20
68924;DHT22;55961;52.156;20.942;2022-07-11T07:17:13;13.80;77.80
68924;DHT22;55961;52.156;20.942;2022-07-11T07:19:39;13.80;77.80
68924;DHT22;55961;52.156;20.942;2022-07-11T07:22:05;13.80;78.10
68924;DHT22;55961;52.156;20.942;2022-07-11T07:24:37;13.80;78.10
68924;DHT22;55961;52.156;20.942;2022-07-11T07:27:04;13.80;78.30
68924;DHT22;55961;52.156;20.942;2022-07-11T07:29:30;13.80;78.40
68924;DHT22;55961;52.156;20.942;2022-07-11T07:31:56;13.80;78.50
68924;DHT22;55961;52.156;20.942;2022-07-11T07:34:22;13.80;78.70
68924;DHT22;55961;52.156;20.942;2022-07-11T07:36:48;13.80;78.80
68924;DHT22;55961;52.156;20.942;2022-07-11T07:39:14;13.90;78.90
68924;DHT22;55961;52.156;20.942;2022-07-11T07:41:40;13.90;79.20
68924;DHT22;55961;52.156;20.942;2022-07-11T07:44:05;13.90;79.10
68924;DHT22;55961;52.156;20.942;2022-07-11T07:46:31;13.90;79.40
68924;DHT22;55961;52.156;20.942;2022-07-11T07:48:57;14.00;79.40
68924;DHT22;55961;52.156;20.942;2022-07-11T07:51:25;14.00;79.00
68924;DHT22;55961;52.156;20.942;2022-07-11T07:53:51;14.10;79.10
68924;DHT22;55961;52.156;20.942;2022-07-11T07:56:17;14.20;78.80
68924;DHT22;55961;52.156;20.942;2022-07-11T07:58:42;14.30;78.50
68924;DHT22;55961;52.156;20.942;2022-07-11T08:01:08;14.40;78.50
68924;DHT22;55961;52.156;20.942;2022-07-11T08:03:53;14.50;76.00
68924;DHT22;55961;52.156;20.942;2022-07-11T08:06:21;14.60;74.90
68924;DHT22;55961;52.156;20.942;2022-07-11T08:08:47;14.70;74.30
68924;DHT22;55961;52.156;20.942;2022-07-11T08:11:13;14.80;74.20
68924;DHT22;55961;52.156;20.942;2022-07-11T08:13:39;14.90;73.80
68924;DHT22;55961;52.156;20.942;2022-07-11T08:16:05;15.10;72.10
68924;DHT22;55961;52.156;20.942;2022-07-11T08:18:33;15.30;71.90
68924;DHT22;55961;52.156;20.942;2022-07-11T08:20:59;15.50;70.30
68924;DHT22;55961;52.156;20.942;2022-07-11T08:23:25;15.60;69.90
68924;DHT22;55961;52.156;20.942;2022-07-11T08:25:51;15.80;69.40
68924;DHT22;55961;52.156;20.942;2022-07-11T08:28:17;16.00;67.30
68924;DHT22;55961;52.156;20.942;2022-07-11T08:30:43;16.20;66.50
68924;DHT22;55961;52.156;20.942;2022-07-11T08:33:11;16.50;63.90
68924;DHT22;55961;52.156;20.942;2022-07-11T08:35:37;16.70;63.70
68924;DHT22;55961;52.156;20.942;2022-07-11T08:38:02;16.90;63.00
68924;DHT22;55961;52.156;20.942;2022-07-11T08:40:28;17.20;63.00
68924;DHT22;55961;52.156;20.942;2022-07-11T08:42:56;17.40;62.40
68924;DHT22;55961;52.156;20.942;2022-07-11T08:45:31;17.60;61.10
68924;DHT22;55961;52.156;20.942;2022-07-11T08:47:58;17.90;60.30
68924;DHT22;55961;52.156;20.942;2022-07-11T08:50:26;18.00;59.60
68924;DHT22;55961;52.156;20.942;2022-07-11T08:52:57;18.20;58.60
68924;DHT22;55961;52.156;20.942;2022-07-11T08:55:24;18.30;57.30
68924;DHT22;55961;52.156;20.942;2022-07-11T08:57:50;18.30;57.70
68924;DHT22;55961;52.156;20.942;2022-07-11T09:00:16;18.40;57.70
68924;DHT22;55961;52.156;20.942;2022-07-11T09:02:43;18.40;55.70
68924;DHT22;55961;52.156;20.942;2022-07-11T09:05:10;18.40;56.50
68924;DHT22;55961;52.156;20.942;2022-07-11T09:07:44;18.50;56.30
68924;DHT22;55961;52.156;20.942;2022-07-11T09:10:10;18.60;56.20
68924;DHT22;55961;52.156;20.942;2022-07-11T09:12:36;18.70;55.10
68924;DHT22;55961;52.156;20.942;2022-07-11T09:15:02;18.90;55.40
68924;DHT22;55961;52.156;20.942;2022-07-11T09:17:29;19.10;55.30
68924;DHT22;55961;52.156;20.942;2022-07-11T09:19:58;19.40;54.30
68924;DHT22;55961;52.156;20.942;2022-07-11T09:22:24;19.50;54.90
68924;DHT22;55961;52.156;20.942;2022-07-11T09:25:13;19.80;52.50
68924;DHT22;55961;52.156;20.942;2022-07-11T09:28:04;19.90;52.40
68924;DHT22;55961;52.156;20.942;2022-07-11T09:30:33;20.00;50.90
68924;DHT22;55961;52.156;20.942;2022-07-11T09:33:08;20.10;49.40
68924;DHT22;55961;52.156;20.942;2022-07-11T09:35:42;20.10;48.90
68924;DHT22;55961;52.156;20.942;2022-07-11T09:38:10;20.10;49.60
68924;DHT22;55961;52.156;20.942;2022-07-11T09:40:37;20.10;49.90
68924;DHT22;55961;52.156;20.942;2022-07-11T09:43:03;20.10;50.20
68924;DHT22;55961;52.156;20.942;2022-07-11T09:45:31;20.20;50.30
68924;DHT22;55961;52.156;20.942;2022-07-11T09:48:01;20.20;50.20
68924;DHT22;55961;52.156;20.942;2022-07-11T09:50:32;20.20;50.50
68924;DHT22;55961;52.156;20.942;2022-07-11T09:53:11;20.20;51.10
68924;DHT22;55961;52.156;20.942;2022-07-11T09:55:40;20.20;51.50
68924;DHT22;55961;52.156;20.942;2022-07-11T09:58:08;20.10;50.90
68924;DHT22;55961;52.156;20.942;2022-07-11T10:00:36;20.10;50.60
68924;DHT22;55961;52.156;20.942;2022-07-11T10:03:03;20.00;50.70
68924;DHT22;55961;52.156;20.942;2022-07-11T10:05:30;20.00;51.40
68924;DHT22;55961;52.156;20.942;2022-07-11T10:07:57;20.00;51.50
68924;DHT22;55961;52.156;20.942;2022-07-11T10:10:24;20.10;51.70
68924;DHT22;55961;52.156;20.942;2022-07-11T10:12:54;20.30;51.80
68924;DHT22;55961;52.156;20.942;2022-07-11T10:15:23;20.40;51.40
68924;DHT22;55961;52.156;20.942;2022-07-11T10:18:02;20.60;50.40
68924;DHT22;55961;52.156;20.942;2022-07-11T10:20:46;20.80;50.30
68924;DHT22;55961;52.156;20.942;2022-07-11T10:28:54;21.30;48.70
68924;DHT22;55961;52.156;20.942;2022-07-11T10:31:22;21.30;48.70
68924;DHT22;55961;52.156;20.942;2022-07-11T10:34:08;21.40;48.60
68924;DHT22;55961;52.156;20.942;2022-07-11T10:36:43;21.40;48.20
68924;DHT22;55961;52.156;20.942;2022-07-11T10:39:23;21.40;48.20
68924;DHT22;55961;52.156;20.942;2022-07-11T10:41:59;21.40;48.20
68924;DHT22;55961;52.156;20.942;2022-07-11T10:44:27;21.30;51.00
68924;DHT22;55961;52.156;20.942;2022-07-11T10:46:53;21.10;52.60
68924;DHT22;55961;52.156;20.942;2022-07-11T10:49:37;20.80;55.10
68924;DHT22;55961;52.156;20.942;2022-07-11T10:52:07;20.50;56.50
68924;DHT22;55961;52.156;20.942;2022-07-11T10:59:59;20.00;59.20
68924;DHT22;55961;52.156;20.942;2022-07-11T11:02:32;20.00;57.80
68924;DHT22;55961;52.156;20.942;2022-07-11T11:16:39;20.10;55.10
68924;DHT22;55961;52.156;20.942;2022-07-11T11:19:05;20.10;55.10
68924;DHT22;55961;52.156;20.942;2022-07-11T11:21:30;20.10;55.90
68924;DHT22;55961;52.156;20.942;2022-07-11T11:24:01;20.00;56.30
68924;DHT22;55961;52.156;20.942;2022-07-11T11:29:08;19.90;55.80
68924;DHT22;55961;52.156;20.942;2022-07-11T11:31:34;19.90;57.60
68924;DHT22;55961;52.156;20.942;2022-07-11T11:34:02;19.80;56.70
68924;DHT22;55961;52.156;20.942;2022-07-11T11:36:30;19.80;57.00
68924;DHT22;55961;52.156;20.942;2022-07-11T11:38:56;19.70;57.20
68924;DHT22;55961;52.156;20.942;2022-07-11T11:41:24;19.80;57.00
68924;DHT22;55961;52.156;20.942;2022-07-11T11:43:51;19.90;54.90
68924;DHT22;55961;52.156;20.942;2022-07-11T11:46:17;19.90;53.90
68924;DHT22;55961;52.156;20.942;2022-07-11T11:48:43;20.00;52.60
68924;DHT22;55961;52.156;20.942;2022-07-11T11:51:13;20.20;51.50
68924;DHT22;55961;52.156;20.942;2022-07-11T11:53:48;20.30;51.50
68924;DHT22;55961;52.156;20.942;2022-07-11T11:56:20;20.40;52.70
68924;DHT22;55961;52.156;20.942;2022-07-11T11:58:48;20.60;52.70
68924;DHT22;55961;52.156;20.942;2022-07-11T12:01:19;20.80;51.50
68924;DHT22;55961;52.156;20.942;2022-07-11T12:03:56;21.00;50.50
68924;DHT22;55961;52.156;20.942;2022-07-11T12:06:31;21.30;50.50
68924;DHT22;55961;52.156;20.942;2022-07-11T12:09:05;21.50;50.60
68924;DHT22;55961;52.156;20.942;2022-07-11T12:11:33;21.80;48.60
68924;DHT22;55961;52.156;20.942;2022-07-11T12:14:02;22.10;47.50
68924;DHT22;55961;52.156;20.942;2022-07-11T12:16:29;22.30;47.10
68924;DHT22;55961;52.156;20.942;2022-07-11T12:19:22;22.60;46.50
68924;DHT22;55961;52.156;20.942;2022-07-11T12:21:50;22.80;47.70
68924;DHT22;55961;52.156;20.942;2022-07-11T12:24:21;22.90;48.70
68924;DHT22;55961;52.156;20.942;2022-07-11T12:26:48;22.90;49.60
68924;DHT22;55961;52.156;20.942;2022-07-11T12:29:16;22.90;48.20
68924;DHT22;55961;52.156;20.942;2022-07-11T12:31:56;22.90;47.40
68924;DHT22;55961;52.156;20.942;2022-07-11T12:37:06;22.70;47.00
68924;DHT22;55961;52.156;20.942;2022-07-11T12:39:35;22.50;47.20
68924;DHT22;55961;52.156;20.942;2022-07-11T12:45:05;22.30;44.60
68924;DHT22;55961;52.156;20.942;2022-07-11T12:47:42;22.00;44.20
68924;DHT22;55961;52.156;20.942;2022-07-11T12:50:22;21.70;44.60
68924;DHT22;55961;52.156;20.942;2022-07-11T12:52:54;21.40;49.10
68924;DHT22;55961;52.156;20.942;2022-07-11T12:55:24;21.00;51.90
68924;DHT22;55961;52.156;20.942;2022-07-11T13:00:35;20.20;54.10
68924;DHT22;55961;52.156;20.942;2022-07-11T13:03:07;19.80;54.00
68924;DHT22;55961;52.156;20.942;2022-07-11T13:05:52;19.40;55.30
68924;DHT22;55961;52.156;20.942;2022-07-11T13:08:22;19.10;56.90
68924;DHT22;55961;52.156;20.942;2022-07-11T13:11:07;18.80;58.00
68924;DHT22;55961;52.156;20.942;2022-07-11T13:13:33;18.50;58.40
68924;DHT22;55961;52.156;20.942;2022-07-11T13:15:59;18.30;58.90
68924;DHT22;55961;52.156;20.942;2022-07-11T13:18:25;18.20;59.60
68924;DHT22;55961;52.156;20.942;2022-07-11T13:20:51;18.00;60.70
68924;DHT22;55961;52.156;20.942;2022-07-11T13:23:17;17.80;61.50
68924;DHT22;55961;52.156;20.942;2022-07-11T13:25:43;17.70;62.50
68924;DHT22;55961;52.156;20.942;2022-07-11T13:28:09;17.50;62.70
68924;DHT22;55961;52.156;20.942;2022-07-11T13:30:38;17.30;63.00
68924;DHT22;55961;52.156;20.942;2022-07-11T13:33:04;17.20;62.90
68924;DHT22;55961;52.156;20.942;2022-07-11T13:35:30;17.00;63.10
68924;DHT22;55961;52.156;20.942;2022-07-11T13:37:56;16.90;63.40
68924;DHT22;55961;52.156;20.942;2022-07-11T13:40:23;16.90;64.50
68924;DHT22;55961;52.156;20.942;2022-07-11T13:42:49;16.70;64.70
68924;DHT22;55961;52.156;20.942;2022-07-11T13:45:17;16.70;65.60
68924;DHT22;55961;52.156;20.942;2022-07-11T13:47:43;16.60;65.30
68924;DHT22;55961;52.156;20.942;2022-07-11T13:50:09;16.60;65.60
68924;DHT22;55961;52.156;20.942;2022-07-11T13:52:35;16.50;66.20
68924;DHT22;55961;52.156;20.942;2022-07-11T13:55:01;16.50;67.00
68924;DHT22;55961;52.156;20.942;2022-07-11T13:57:28;16.40;67.10
68924;DHT22;55961;52.156;20.942;2022-07-11T13:59:54;16.30;67.10
68924;DHT22;55961;52.156;20.942;2022-07-11T14:02:22;16.30;67.60
68924;DHT22;55961;52.156;20.942;2022-07-11T14:04:48;16.30;67.80
68924;DHT22;55961;52.156;20.942;2022-07-11T14:07:14;16.30;67.80
68924;DHT22;55961;52.156;20.942;2022-07-11T14:09:40;16.30;68.10
68924;DHT22;55961;52.156;20.942;2022-07-11T14:12:07;16.30;68.80
68924;DHT22;55961;52.156;20.942;2022-07-11T14:14:34;16.30;68.60
68924;DHT22;55961;52.156;20.942;2022-07-11T14:17:00;16.30;68.70
68924;DHT22;55961;52.156;20.942;2022-07-11T14:19:26;16.30;68.90
68924;DHT22;55961;52.156;20.942;2022-07-11T14:21:53;16.30;68.50
68924;DHT22;55961;52.156;20.942;2022-07-11T14:24:19;16.30;68.40
68924;DHT22;55961;52.156;20.942;2022-07-11T14:26:45;16.30;68.80
68924;DHT22;55961;52.156;20.942;2022-07-11T14:29:12;16.30;68.80
68924;DHT22;55961;52.156;20.942;2022-07-11T14:31:38;16.40;69.10
68924;DHT22;55961;52.156;20.942;2022-07-11T14:34:04;16.40;69.20
68924;DHT22;55961;52.156;20.942;2022-07-11T14:36:30;16.50;69.00
68924;DHT22;55961;52.156;20.942;2022-07-11T14:38:56;16.50;68.90
68924;DHT22;55961;52.156;20.942;2022-07-11T14:41:23;16.60;69.30
68924;DHT22;55961;52.156;20.942;2022-07-11T14:43:49;16.70;69.40
68924;DHT22;55961;52.156;20.942;2022-07-11T14:46:15;16.70;68.90
68924;DHT22;55961;52.156;20.942;2022-07-11T14:48:42;16.80;68.90
68924;DHT22;55961;52.156;20.942;2022-07-11T14:51:09;16.80;68.50
68924;DHT22;55961;52.156;20.942;2022-07-11T14:53:35;16.90;68.40
68924;DHT22;55961;52.156;20.942;2022-07-11T14:56:03;16.90;69.00
68924;DHT22;55961;52.156;20.942;2022-07-11T14:58:29;17.00;69.50
68924;DHT22;55961;52.156;20.942;2022-07-11T15:00:54;17.00;69.50
68924;DHT22;55961;52.156;20.942;2022-07-11T15:03:20;17.00;69.70
68924;DHT22;55961;52.156;20.942;2022-07-11T15:06:09;17.10;70.10
68924;DHT22;55961;52.156;20.942;2022-07-11T15:08:35;17.10;69.90
68924;DHT22;55961;52.156;20.942;2022-07-11T15:11:20;17.20;69.30
68924;DHT22;55961;52.156;20.942;2022-07-11T15:14:05;17.20;69.60
68924;DHT22;55961;52.156;20.942;2022-07-11T15:16:32;17.30;69.50
68924;DHT22;55961;52.156;20.942;2022-07-11T15:19:00;17.30;69.70
68924;DHT22;55961;52.156;20.942;2022-07-11T15:21:26;17.40;70.30
68924;DHT22;55961;52.156;20.942;2022-07-11T15:23:52;17.50;70.10
68924;DHT22;55961;52.156;20.942;2022-07-11T15:26:18;17.60;69.90
68924;DHT22;55961;52.156;20.942;2022-07-11T15:28:45;17.80;69.60
68924;DHT22;55961;52.156;20.942;2022-07-11T15:31:13;18.00;69.20
68924;DHT22;55961;52.156;20.942;2022-07-11T15:33:39;18.10;68.80
68924;DHT22;55961;52.156;20.942;2022-07-11T15:36:06;18.30;68.30
68924;DHT22;55961;52.156;20.942;2022-07-11T15:38:32;18.50;67.90
68924;DHT22;55961;52.156;20.942;2022-07-11T15:40:58;18.60;67.40
68924;DHT22;55961;52.156;20.942;2022-07-11T15:43:24;18.70;66.70
68924;DHT22;55961;52.156;20.942;2022-07-11T15:45:50;18.80;66.20
68924;DHT22;55961;52.156;20.942;2022-07-11T15:48:16;18.90;66.90
68924;DHT22;55961;52.156;20.942;2022-07-11T15:50:42;19.00;66.60
68924;DHT22;55961;52.156;20.942;2022-07-11T15:53:08;19.10;62.40
68924;DHT22;55961;52.156;20.942;2022-07-11T15:55:34;19.20;61.90